createdAt,value
2022-12-13T00:00:46.244Z,98706.53
2022-12-13T00:03:12.656Z,98708.59
2022-12-13T00:05:45.540Z,98705.34
2022-12-13T00:08:12.015Z,98699.13
2022-12-13T00:10:38.460Z,98698.41
2022-12-13T00:13:04.972Z,98693.66
2022-12-13T00:15:31.415Z,98698.84
2022-12-13T00:17:57.830Z,98700.63
2022-12-13T00:20:24.239Z,98694.13
2022-12-13T00:22:52.001Z,98698.25
2022-12-13T00:25:20.464Z,98691.00
2022-12-13T00:27:46.845Z,98672.94
2022-12-13T00:30:13.297Z,98679.41
2022-12-13T00:32:39.668Z,98682.03
2022-12-13T00:35:06.494Z,98666.97
2022-12-13T00:37:32.908Z,98664.97
2022-12-13T00:39:59.285Z,98673.22
2022-12-13T00:42:25.668Z,98662.63
2022-12-13T00:44:52.063Z,98665.53
2022-12-13T00:47:20.782Z,98662.13
2022-12-13T00:49:47.163Z,98659.22
2022-12-13T00:52:13.611Z,98652.88
2022-12-13T00:54:39.996Z,98650.09
2022-12-13T00:57:06.416Z,98662.13
2022-12-13T00:59:32.848Z,98657.88
2022-12-13T01:01:59.222Z,98656.28
2022-12-13T01:04:26.866Z,98653.78
2022-12-13T01:06:54.491Z,98652.13
2022-12-13T01:09:25.447Z,98655.38
2022-12-13T01:11:56.111Z,98656.72
2022-12-13T01:14:22.542Z,98660.81
2022-12-13T01:16:49.019Z,98655.78
2022-12-13T01:19:15.579Z,98661.13
2022-12-13T01:21:42.017Z,98659.06
2022-12-13T01:24:11.041Z,98662.31
2022-12-13T01:26:37.648Z,98664.38
2022-12-13T01:29:05.603Z,98667.75
2022-12-13T01:31:33.249Z,98665.69
2022-12-13T01:33:59.657Z,98669.22
2022-12-13T01:36:27.466Z,98666.97
2022-12-13T01:38:58.395Z,98659.94
2022-12-13T01:41:27.132Z,98655.78
2022-12-13T01:44:03.233Z,98664.81
2022-12-13T01:46:31.760Z,98665.41
2022-12-13T01:49:19.293Z,98664.09
2022-12-13T01:51:56.678Z,98657.13
2022-12-13T01:54:33.343Z,98662.31
2022-12-13T01:57:03.543Z,98660.56
2022-12-13T01:59:30.022Z,98656.75
2022-12-13T02:02:00.634Z,98650.38
2022-12-13T02:04:44.867Z,98642.41
2022-12-13T02:07:23.013Z,98642.75
2022-12-13T02:09:56.347Z,98644.50
2022-12-13T02:12:25.483Z,98642.47
2022-12-13T02:14:57.792Z,98640.13
2022-12-13T02:17:55.594Z,98633.44
2022-12-13T02:20:36.991Z,98631.13
2022-12-13T02:23:31.451Z,98628.94
2022-12-13T02:26:22.241Z,98624.91
2022-12-13T02:29:07.141Z,98632.44
2022-12-13T02:31:47.780Z,98627.28
2022-12-13T02:34:18.813Z,98626.09
2022-12-13T02:36:55.083Z,98627.28
2022-12-13T02:39:29.790Z,98623.75
2022-12-13T02:42:22.044Z,98628.16
2022-12-13T02:45:20.252Z,98628.78
2022-12-13T02:47:47.768Z,98621.81
2022-12-13T02:50:14.966Z,98622.88
2022-12-13T02:52:43.072Z,98620.63
2022-12-13T02:55:13.930Z,98610.19
2022-12-13T02:57:42.840Z,98611.34
2022-12-13T03:00:10.800Z,98613.56
2022-12-13T03:02:52.638Z,98612.50
2022-12-13T03:05:49.678Z,98602.34
2022-12-13T03:08:29.242Z,98600.41
2022-12-13T03:11:04.620Z,98598.91
2022-12-13T03:13:48.647Z,98590.84
2022-12-13T03:16:23.533Z,98584.06
2022-12-13T03:18:52.288Z,98595.13
2022-12-13T03:21:18.679Z,98592.63
2022-12-13T03:23:46.798Z,98596.88
2022-12-13T03:26:21.321Z,98597.63
2022-12-13T03:28:47.798Z,98594.78
2022-12-13T03:31:14.295Z,98595.41
2022-12-13T03:33:40.982Z,98597.13
2022-12-13T03:36:08.392Z,98591.13
2022-12-13T03:38:35.040Z,98589.34
2022-12-13T03:41:05.427Z,98587.59
2022-12-13T03:43:31.970Z,98587.44
2022-12-13T03:45:58.366Z,98592.13
2022-12-13T03:48:24.975Z,98589.63
2022-12-13T03:50:52.830Z,98589.34
2022-12-13T03:53:22.644Z,98597.91
2022-12-13T03:55:58.087Z,98583.59
2022-12-13T03:58:27.491Z,98589.78
2022-12-13T04:01:04.131Z,98588.88
2022-12-13T04:03:30.578Z,98582.97
2022-12-13T04:05:56.956Z,98582.09
2022-12-13T04:08:23.460Z,98590.38
2022-12-13T04:10:49.911Z,98578.13
2022-12-13T04:13:34.701Z,98575.91
2022-12-13T04:16:02.391Z,98577.22
2022-12-13T04:18:28.955Z,98580.94
2022-12-13T04:20:55.354Z,98581.53
2022-12-13T04:23:21.723Z,98577.28
2022-12-13T04:25:48.286Z,98576.25
2022-12-13T04:28:21.530Z,98574.31
2022-12-13T04:30:48.831Z,98573.28
2022-12-13T04:33:23.507Z,98567.13
2022-12-13T04:35:50.386Z,98573.00
2022-12-13T04:38:17.249Z,98570.34
2022-12-13T04:40:43.735Z,98574.78
2022-12-13T04:43:10.189Z,98576.25
2022-12-13T04:45:36.637Z,98574.63
2022-12-13T04:48:03.225Z,98568.00
2022-12-13T04:50:29.610Z,98570.06
2022-12-13T04:52:56.138Z,98575.66
2022-12-13T04:55:22.603Z,98572.13
2022-12-13T04:57:49.385Z,98575.38
2022-12-13T05:00:15.987Z,98575.25
2022-12-13T05:02:42.606Z,98565.50
2022-12-13T05:05:10.390Z,98565.94
2022-12-13T05:07:41.944Z,98581.69
2022-12-13T05:10:10.246Z,98574.47
2022-12-13T05:12:36.680Z,98575.38
2022-12-13T05:15:03.214Z,98566.50
2022-12-13T05:17:29.642Z,98568.63
2022-12-13T05:19:56.119Z,98574.09
2022-12-13T05:22:22.551Z,98573.75
2022-12-13T05:24:49.101Z,98568.31
2022-12-13T05:27:25.894Z,98570.97
2022-12-13T05:30:02.992Z,98569.19
2022-12-13T05:32:33.761Z,98567.91
2022-12-13T05:35:21.808Z,98567.28
2022-12-13T05:37:54.315Z,98560.66
2022-12-13T05:40:22.861Z,98557.44
2022-12-13T05:42:49.322Z,98552.22
2022-12-13T05:45:17.913Z,98558.16
2022-12-13T05:47:44.946Z,98553.28
2022-12-13T05:50:11.999Z,98553.16
2022-12-13T05:52:38.425Z,98554.75
2022-12-13T05:55:05.280Z,98546.97
2022-12-13T05:57:32.267Z,98553.59
2022-12-13T06:00:00.665Z,98556.38
2022-12-13T06:02:27.366Z,98550.63
2022-12-13T06:04:53.860Z,98550.38
2022-12-13T06:07:20.315Z,98543.13
2022-12-13T06:09:46.716Z,98549.59
2022-12-13T06:12:31.740Z,98552.09
2022-12-13T06:15:01.980Z,98549.59
2022-12-13T06:17:36.185Z,98550.63
2022-12-13T06:20:24.427Z,98552.41
2022-12-13T06:22:50.773Z,98556.94
2022-12-13T06:25:30.510Z,98556.84
2022-12-13T06:28:01.213Z,98561.13
2022-12-13T06:30:29.009Z,98556.81
2022-12-13T06:32:55.474Z,98555.94
2022-12-13T06:35:28.857Z,98563.16
2022-12-13T06:38:00.879Z,98558.16
2022-12-13T06:40:28.599Z,98558.44
2022-12-13T06:42:55.010Z,98559.44
2022-12-13T06:45:21.557Z,98555.03
2022-12-13T06:47:47.960Z,98561.81
2022-12-13T06:50:15.039Z,98565.34
2022-12-13T06:52:41.456Z,98579.66
2022-12-13T06:55:08.222Z,98569.06
2022-12-13T06:57:34.746Z,98575.25
2022-12-13T07:00:03.339Z,98578.31
2022-12-13T07:02:29.813Z,98568.00
2022-12-13T07:04:56.447Z,98571.53
2022-12-13T07:07:23.552Z,98576.25
2022-12-13T07:09:50.022Z,98574.19
2022-12-13T07:12:16.470Z,98575.97
2022-12-13T07:14:42.861Z,98576.97
2022-12-13T07:17:10.693Z,98583.50
2022-12-13T07:19:37.108Z,98583.78
2022-12-13T07:22:05.844Z,98576.25
2022-12-13T07:24:32.914Z,98581.28
2022-12-13T07:26:59.325Z,98580.38
2022-12-13T07:29:25.728Z,98577.75
2022-12-13T07:31:52.140Z,98575.97
2022-12-13T07:34:18.512Z,98580.38
2022-12-13T07:36:44.959Z,98593.06
2022-12-13T07:39:11.362Z,98586.28
2022-12-13T07:41:37.755Z,98589.84
2022-12-13T07:44:04.801Z,98587.44
2022-12-13T07:46:32.862Z,98597.63
2022-12-13T07:49:02.468Z,98601.88
2022-12-13T07:51:28.932Z,98602.16
2022-12-13T07:53:55.337Z,98599.81
2022-12-13T07:56:21.767Z,98600.25
2022-12-13T07:58:48.251Z,98601.56
2022-12-13T08:01:14.692Z,98588.44
2022-12-13T08:03:41.107Z,98588.88
2022-12-13T08:06:11.734Z,98585.91
2022-12-13T08:08:38.640Z,98578.22
2022-12-13T08:11:09.994Z,98582.34
2022-12-13T08:13:37.053Z,98588.41
2022-12-13T08:16:26.670Z,98592.03
2022-12-13T08:18:52.682Z,98593.50
2022-12-13T08:24:20.009Z,98600.88
2022-12-13T08:26:46.391Z,98608.22
2022-12-13T08:29:13.196Z,98608.03
2022-12-13T08:31:50.139Z,98608.75
2022-12-13T08:34:16.577Z,98611.69
2022-12-13T08:36:42.999Z,98612.31
2022-12-13T08:39:09.485Z,98615.41
2022-12-13T08:41:39.156Z,98610.06
2022-12-13T08:44:06.003Z,98606.34
2022-12-13T08:46:32.523Z,98613.41
2022-12-13T08:48:59.006Z,98621.06
2022-12-13T08:51:29.496Z,98609.53
2022-12-13T08:54:11.285Z,98621.34
2022-12-13T08:56:38.103Z,98611.16
2022-12-13T08:59:04.743Z,98616.72
2022-12-13T09:01:31.243Z,98619.81
2022-12-13T09:03:57.725Z,98621.53
2022-12-13T09:06:24.179Z,98620.34
2022-12-13T09:08:53.084Z,98616.06
2022-12-13T09:11:20.849Z,98607.31
2022-12-13T09:13:51.804Z,98614.09
2022-12-13T09:16:23.416Z,98609.47
2022-12-13T09:18:54.852Z,98609.75
2022-12-13T09:21:31.314Z,98619.22
2022-12-13T09:24:01.360Z,98616.97
2022-12-13T09:26:28.608Z,98613.69
2022-12-13T09:28:55.074Z,98605.84
2022-12-13T09:31:21.772Z,98602.69
2022-12-13T09:33:48.339Z,98597.69
2022-12-13T09:36:19.977Z,98599.19
2022-12-13T09:38:47.211Z,98596.94
2022-12-13T09:41:30.058Z,98590.19
2022-12-13T09:44:31.203Z,98598.22
2022-12-13T09:47:02.576Z,98596.59
2022-12-13T09:49:35.099Z,98585.91
2022-12-13T09:52:11.830Z,98590.72
2022-12-13T09:54:49.355Z,98591.97
2022-12-13T09:57:32.177Z,98585.13
2022-12-13T10:00:20.871Z,98585.72
2022-12-13T10:02:58.502Z,98586.59
2022-12-13T10:05:37.110Z,98586.53
2022-12-13T10:08:28.095Z,98580.88
2022-12-13T10:10:54.531Z,98571.25
2022-12-13T10:13:31.079Z,98566.94
2022-12-13T10:16:02.661Z,98572.25
2022-12-13T10:18:37.649Z,98580.81
2022-12-13T10:21:11.081Z,98581.06
2022-12-13T10:23:59.785Z,98585.94
2022-12-13T10:26:25.071Z,98579.69
2022-12-13T10:29:01.630Z,98583.69
2022-12-13T10:31:28.123Z,98572.53
2022-12-13T10:33:56.179Z,98570.44
2022-12-13T10:36:28.785Z,98566.28
2022-12-13T10:38:55.494Z,98560.53
2022-12-13T10:41:36.798Z,98564.03
2022-12-13T10:44:12.261Z,98553.75
2022-12-13T10:46:47.382Z,98564.06
2022-12-13T10:49:24.922Z,98554.22
2022-12-13T10:51:53.288Z,98552.13
2022-12-13T10:54:27.714Z,98562.19
2022-12-13T10:56:59.972Z,98552.25
2022-12-13T10:59:26.426Z,98559.81
2022-12-13T11:01:53.140Z,98554.28
2022-12-13T11:04:34.572Z,98553.31
2022-12-13T11:07:40.496Z,98548.78
2022-12-13T11:10:36.169Z,98543.25
2022-12-13T11:13:06.619Z,98532.22
2022-12-13T11:15:35.067Z,98533.94
2022-12-13T11:18:03.468Z,98530.94
2022-12-13T11:20:37.435Z,98520.63
2022-12-13T11:23:23.163Z,98509.84
2022-12-13T11:25:55.589Z,98504.56
2022-12-13T11:28:35.190Z,98512.09
2022-12-13T11:31:13.228Z,98516.97
2022-12-13T11:33:58.493Z,98511.31
2022-12-13T11:36:31.853Z,98504.81
2022-12-13T11:39:04.080Z,98501.25
2022-12-13T11:41:42.028Z,98507.81
2022-12-13T11:44:29.342Z,98497.59
2022-12-13T11:46:58.551Z,98500.75
2022-12-13T11:49:36.292Z,98502.78
2022-12-13T11:52:09.693Z,98505.94
2022-12-13T11:54:50.751Z,98503.66
2022-12-13T11:57:39.570Z,98505.94
2022-12-13T12:00:33.794Z,98503.75
2022-12-13T12:03:16.830Z,98499.50
2022-12-13T12:06:09.596Z,98494.47
2022-12-13T12:08:43.003Z,98488.94
2022-12-13T12:11:24.656Z,98490.16
2022-12-13T12:13:57.101Z,98479.56
2022-12-13T12:16:40.182Z,98474.75
2022-12-13T12:19:24.209Z,98466.22
2022-12-13T12:22:14.228Z,98461.28
2022-12-13T12:25:18.871Z,98460.03
2022-12-13T12:27:52.075Z,98450.44
2022-12-13T12:30:42.654Z,98457.09
2022-12-13T12:33:26.981Z,98456.97
2022-12-13T12:36:03.940Z,98452.56
2022-12-13T12:39:07.264Z,98459.31
2022-12-13T12:42:01.137Z,98457.66
2022-12-13T12:45:03.597Z,98458.56
2022-12-13T12:48:26.271Z,98458.78
2022-12-13T12:50:42.818Z,98446.94
2022-12-13T12:53:29.841Z,98444.41
2022-12-13T12:56:15.279Z,98443.63
2022-12-13T12:59:02.053Z,98440.22
2022-12-13T13:01:43.669Z,98438.25
2022-12-13T13:04:12.487Z,98438.59
2022-12-13T13:06:43.819Z,98429.28
2022-12-13T13:09:12.930Z,98435.19
2022-12-13T13:11:43.005Z,98433.69
2022-12-13T13:14:46.868Z,98428.28
2022-12-13T13:17:16.186Z,98424.00
2022-12-13T13:19:51.219Z,98424.25
2022-12-13T13:22:32.730Z,98420.94
2022-12-13T13:25:25.770Z,98436.06
2022-12-13T13:27:52.822Z,98428.00
2022-12-13T13:30:23.310Z,98422.88
2022-12-13T13:32:53.213Z,98432.78
2022-12-13T13:35:28.870Z,98425.47
2022-12-13T13:37:55.941Z,98430.03
2022-12-13T13:40:38.404Z,98426.22
2022-12-13T13:43:10.996Z,98418.72
2022-12-13T13:45:49.882Z,98413.81
2022-12-13T13:48:38.008Z,98422.72
2022-12-13T13:52:08.700Z,98421.13
2022-12-13T13:54:43.065Z,98423.00
2022-12-13T13:57:45.558Z,98415.06
2022-12-13T14:00:19.609Z,98409.94
2022-12-13T14:03:33.201Z,98409.16
2022-12-13T14:06:11.392Z,98406.16
2022-12-13T14:09:01.935Z,98405.28
2022-12-13T14:11:46.619Z,98413.97
2022-12-13T14:14:50.054Z,98399.63
2022-12-13T14:17:45.885Z,98396.34
2022-12-13T14:20:27.861Z,98394.47
2022-12-13T14:23:03.513Z,98387.78
2022-12-13T14:25:47.809Z,98391.78
2022-12-13T14:28:30.247Z,98398.09
2022-12-13T14:30:57.339Z,98388.25
2022-12-13T14:33:25.623Z,98382.75
2022-12-13T14:35:54.646Z,98374.72
2022-12-13T14:38:24.537Z,98373.94
2022-12-13T14:40:54.042Z,98361.34
2022-12-13T14:43:34.381Z,98356.88
2022-12-13T14:46:06.311Z,98361.91
2022-12-13T14:48:42.466Z,98357.34
2022-12-13T14:51:25.916Z,98357.72
2022-12-13T14:53:53.003Z,98357.84
2022-12-13T14:56:28.398Z,98344.75
2022-12-13T14:58:55.570Z,98345.91
2022-12-13T15:01:36.112Z,98346.25
2022-12-13T15:04:21.096Z,98351.19
2022-12-13T15:06:49.700Z,98349.84
2022-12-13T15:09:16.734Z,98342.16
2022-12-13T15:11:44.293Z,98339.84
2022-12-13T15:14:19.227Z,98336.66
2022-12-13T15:16:50.679Z,98341.31
2022-12-13T15:19:31.153Z,98335.75
2022-12-13T15:22:06.059Z,98344.00
2022-12-13T15:24:34.878Z,98337.69
2022-12-13T15:27:01.679Z,98334.56
2022-12-13T15:29:31.262Z,98344.28
2022-12-13T15:31:58.320Z,98343.94
2022-12-13T15:34:29.472Z,98340.00
2022-12-13T15:36:59.234Z,98353.13
2022-12-13T15:39:27.860Z,98344.72
2022-12-13T15:41:55.965Z,98341.44
2022-12-13T15:44:28.345Z,98340.69
2022-12-13T15:47:03.443Z,98340.50
2022-12-13T15:49:34.176Z,98349.16
2022-12-13T15:52:03.862Z,98347.75
2022-12-13T15:54:30.589Z,98357.47
2022-12-13T15:57:35.545Z,98357.34
2022-12-13T16:00:31.503Z,98361.66
2022-12-13T16:03:16.282Z,98358.88
2022-12-13T16:05:48.766Z,98359.50
2022-12-13T16:08:28.158Z,98363.78
2022-12-13T16:10:54.945Z,98359.00
2022-12-13T16:13:30.010Z,98363.78
2022-12-13T16:16:00.392Z,98359.41
2022-12-13T16:18:46.411Z,98355.53
2022-12-13T16:21:14.154Z,98350.34
2022-12-13T16:23:40.789Z,98345.09
2022-12-13T16:26:20.450Z,98344.44
2022-12-13T16:28:46.824Z,98341.91
2022-12-13T16:31:15.979Z,98338.28
2022-12-13T16:33:43.027Z,98343.31
2022-12-13T16:36:10.395Z,98345.09
2022-12-13T16:38:37.044Z,98338.94
2022-12-13T16:41:08.917Z,98340.97
2022-12-13T16:43:44.981Z,98331.41
2022-12-13T16:47:16.938Z,98327.97
2022-12-13T16:48:59.172Z,98321.97
2022-12-13T16:51:25.605Z,98325.47
2022-12-13T16:53:52.004Z,98318.69
2022-12-13T16:56:21.623Z,98326.09
2022-12-13T16:58:50.305Z,98332.25
2022-12-13T17:01:20.633Z,98317.91
2022-12-13T17:03:47.354Z,98317.91
2022-12-13T17:06:14.961Z,98314.41
2022-12-13T17:08:41.393Z,98319.44
2022-12-13T17:11:14.626Z,98312.88
2022-12-13T17:13:44.598Z,98308.00
2022-12-13T17:16:11.278Z,98298.31
2022-12-13T17:18:37.891Z,98306.97
2022-12-13T17:21:08.206Z,98297.69
2022-12-13T17:23:34.707Z,98295.84
2022-12-13T17:26:08.684Z,98282.44
2022-12-13T17:28:35.362Z,98270.91
2022-12-13T17:31:11.822Z,98263.38
2022-12-13T17:33:38.354Z,98257.56
2022-12-13T17:36:05.532Z,98249.91
2022-12-13T17:38:32.271Z,98252.53
2022-12-13T17:41:00.776Z,98250.81
2022-12-13T17:43:34.445Z,98261.34
2022-12-13T17:46:16.779Z,98256.31
2022-12-13T17:48:45.387Z,98269.53
2022-12-13T17:51:13.009Z,98267.25
2022-12-13T17:53:40.923Z,98265.47
2022-12-13T17:56:08.839Z,98263.09
2022-12-13T17:58:35.548Z,98267.50
2022-12-13T18:01:11.632Z,98272.63
2022-12-13T18:03:38.392Z,98277.91
2022-12-13T18:06:06.949Z,98282.72
2022-12-13T18:08:35.594Z,98276.53
2022-12-13T18:11:31.213Z,98261.06
2022-12-13T18:13:48.873Z,98257.06
2022-12-13T18:16:22.454Z,98263.09
2022-12-13T18:18:54.979Z,98275.13
2022-12-13T18:21:22.191Z,98270.63
2022-12-13T18:23:55.009Z,98268.59
2022-12-13T18:26:23.022Z,98275.41
2022-12-13T18:28:49.655Z,98282.34
2022-12-13T18:31:18.631Z,98288.97
2022-12-13T18:33:47.819Z,98289.25
2022-12-13T18:36:14.707Z,98285.47
2022-12-13T18:38:42.197Z,98286.97
2022-12-13T18:41:12.371Z,98272.53
2022-12-13T18:43:39.303Z,98268.38
2022-12-13T18:46:06.347Z,98261.56
2022-12-13T18:48:33.809Z,98264.31
2022-12-13T18:51:01.717Z,98264.59
2022-12-13T18:53:28.599Z,98271.78
2022-12-13T18:56:04.762Z,98274.63
2022-12-13T18:58:35.354Z,98266.31
2022-12-13T19:01:03.041Z,98261.16
2022-12-13T19:03:31.376Z,98261.81
2022-12-13T19:05:59.410Z,98252.25
2022-12-13T19:08:26.754Z,98251.00
2022-12-13T19:10:57.231Z,98248.25
2022-12-13T19:13:25.071Z,98251.75
2022-12-13T19:15:52.896Z,98244.34
2022-12-13T19:18:19.383Z,98231.53
2022-12-13T19:20:47.591Z,98221.34
2022-12-13T19:23:14.421Z,98218.06
2022-12-13T19:25:41.540Z,98219.19
2022-12-13T19:28:08.595Z,98228.59
2022-12-13T19:30:35.118Z,98235.41
2022-12-13T19:33:02.176Z,98230.38
2022-12-13T19:35:28.585Z,98224.22
2022-12-13T19:37:55.015Z,98223.56
2022-12-13T19:40:21.412Z,98213.28
2022-12-13T19:42:47.816Z,98215.56
2022-12-13T19:45:14.735Z,98212.63
2022-12-13T19:47:41.192Z,98203.69
2022-12-13T19:50:11.344Z,98200.69
2022-12-13T19:52:38.313Z,98202.69
2022-12-13T19:55:06.076Z,98196.25
2022-12-13T19:57:33.330Z,98190.13
2022-12-13T19:59:59.763Z,98180.28
2022-12-13T20:02:26.527Z,98185.09
2022-12-13T20:04:52.958Z,98173.25
2022-12-13T20:07:19.521Z,98171.56
2022-12-13T20:09:45.916Z,98169.94
2022-12-13T20:12:12.324Z,98169.22
2022-12-13T20:14:38.719Z,98170.09
2022-12-13T20:17:05.151Z,98167.59
2022-12-13T20:19:31.515Z,98171.50
2022-12-13T20:21:57.901Z,98157.72
2022-12-13T20:24:24.354Z,98148.09
2022-12-13T20:26:50.736Z,98162.09
2022-12-13T20:29:18.546Z,98157.53
2022-12-13T20:31:48.337Z,98158.81
2022-12-13T20:34:15.369Z,98151.59
2022-12-13T20:36:42.017Z,98143.97
2022-12-13T20:39:10.664Z,98148.34
2022-12-13T20:41:37.456Z,98150.75
2022-12-13T20:44:06.641Z,98156.25
2022-12-13T20:46:33.198Z,98147.59
2022-12-13T20:49:02.080Z,98136.75
2022-12-13T20:51:29.667Z,98145.41
2022-12-13T20:53:56.801Z,98144.78
2022-12-13T20:56:25.410Z,98156.47
2022-12-13T20:58:52.136Z,98150.78
2022-12-13T21:01:24.149Z,98142.94
2022-12-13T21:03:53.879Z,98137.81
2022-12-13T21:06:20.311Z,98127.34
2022-12-13T21:08:52.742Z,98126.69
2022-12-13T21:11:27.516Z,98124.94
2022-12-13T21:13:55.326Z,98123.19
2022-12-13T21:16:23.317Z,98114.66
2022-12-13T21:18:51.786Z,98112.66
2022-12-13T21:21:18.320Z,98114.16
2022-12-13T21:23:44.734Z,98112.66
2022-12-13T21:26:11.117Z,98101.03
2022-12-13T21:28:37.603Z,98094.00
2022-12-13T21:31:06.776Z,98082.03
2022-12-13T21:33:34.846Z,98083.53
2022-12-13T21:36:13.314Z,98075.88
2022-12-13T21:38:40.104Z,98069.19
2022-12-13T21:41:07.765Z,98067.16
2022-12-13T21:43:36.875Z,98076.13
2022-12-13T21:46:14.984Z,98074.78
2022-12-13T21:48:43.084Z,98072.81
2022-12-13T21:51:12.643Z,98064.75
2022-12-13T21:53:39.488Z,98070.00
2022-12-13T21:56:25.502Z,98068.03
2022-12-13T21:59:10.679Z,98076.00
2022-12-13T22:01:56.568Z,98061.13
2022-12-13T22:04:23.057Z,98065.41
2022-12-13T22:06:49.442Z,98067.91
2022-12-13T22:09:15.872Z,98064.97
2022-12-13T22:11:42.349Z,98073.53
2022-12-13T22:14:08.810Z,98071.03
2022-12-13T22:16:35.343Z,98074.19
2022-12-13T22:19:01.847Z,98067.41
2022-12-13T22:21:28.288Z,98062.59
2022-12-13T22:23:55.362Z,98055.03
2022-12-13T22:26:23.076Z,98052.53
2022-12-13T22:28:49.945Z,98046.84
2022-12-13T22:31:17.045Z,98052.97
2022-12-13T22:33:43.631Z,98050.25
2022-12-13T22:36:10.949Z,98045.13
2022-12-13T22:38:37.517Z,98040.72
2022-12-13T22:41:05.070Z,98032.41
2022-12-13T22:43:35.484Z,98025.63
2022-12-13T22:46:06.326Z,98018.84
2022-12-13T22:48:32.812Z,98028.69
2022-12-13T22:51:03.779Z,98024.09
2022-12-13T22:53:30.646Z,98017.31
2022-12-13T22:56:11.248Z,98029.00
2022-12-13T22:58:38.176Z,98030.66
2022-12-13T23:01:12.199Z,98032.19
2022-12-13T23:03:39.386Z,98018.50
2022-12-13T23:06:07.426Z,98026.06
2022-12-13T23:08:37.561Z,98025.53
2022-12-13T23:11:25.828Z,98035.69
2022-12-13T23:13:56.312Z,98031.88
2022-12-13T23:16:24.304Z,98033.72
2022-12-13T23:18:57.586Z,98026.63
2022-12-13T23:21:37.558Z,98029.59
2022-12-13T23:24:04.423Z,98034.41
2022-12-13T23:26:32.509Z,98038.75
2022-12-13T23:29:04.655Z,98031.53
2022-12-13T23:31:34.472Z,98027.06
2022-12-13T23:34:03.657Z,98019.53
2022-12-13T23:36:30.333Z,98016.88
2022-12-13T23:38:59.205Z,98017.97
2022-12-13T23:41:33.359Z,98017.03
2022-12-13T23:44:00.867Z,98017.81
2022-12-13T23:46:30.391Z,98029.28
2022-12-13T23:49:00.512Z,98022.09
2022-12-13T23:51:27.769Z,98018.69
2022-12-13T23:53:54.250Z,98011.66
2022-12-13T23:56:21.247Z,98001.59
2022-12-13T23:58:48.200Z,97997.22
